createdAt,value
2022-11-20T00:01:34.082Z,86.12
2022-11-20T00:04:01.484Z,86.28
2022-11-20T00:06:29.970Z,86.38
2022-11-20T00:08:59.154Z,86.55
2022-11-20T00:11:27.707Z,86.92
2022-11-20T00:13:58.192Z,86.86
2022-11-20T00:16:28.995Z,87.13
2022-11-20T00:18:57.078Z,87.78
2022-11-20T00:21:27.083Z,87.77
2022-11-20T00:23:56.417Z,88.11
2022-11-20T00:26:26.381Z,88.35
2022-11-20T00:28:55.890Z,88.18
2022-11-20T00:31:23.722Z,88.46
2022-11-20T00:33:51.171Z,88.62
2022-11-20T00:36:26.822Z,88.37
2022-11-20T00:38:55.948Z,88.23
2022-11-20T00:41:24.673Z,88.44
2022-11-20T00:43:53.232Z,88.60
2022-11-20T00:46:26.268Z,89.17
2022-11-20T00:48:53.738Z,89.25
2022-11-20T00:51:26.459Z,89.14
2022-11-20T00:53:56.854Z,89.81
2022-11-20T00:56:24.275Z,89.79
2022-11-20T00:58:51.509Z,89.75
2022-11-20T01:01:21.444Z,89.71
2022-11-20T01:03:51.202Z,89.68
2022-11-20T01:06:23.267Z,89.97
2022-11-20T01:08:51.766Z,90.05
2022-11-20T01:11:22.909Z,89.88
2022-11-20T01:13:51.369Z,90.45
2022-11-20T01:16:21.356Z,90.21
2022-11-20T01:18:50.742Z,90.58
2022-11-20T01:21:23.712Z,90.83
2022-11-20T01:23:52.528Z,91.05
2022-11-20T01:26:25.802Z,91.00
2022-11-20T01:28:53.031Z,91.16
2022-11-20T01:31:22.545Z,91.94
2022-11-20T01:33:52.739Z,92.28
2022-11-20T01:36:22.315Z,92.07
2022-11-20T01:38:51.920Z,92.21
2022-11-20T01:41:38.402Z,92.30
2022-11-20T01:44:05.779Z,92.46
2022-11-20T01:46:37.861Z,92.71
2022-11-20T01:49:38.801Z,92.52
2022-11-20T01:52:18.869Z,92.42
2022-11-20T01:54:57.245Z,91.89
2022-11-20T01:57:29.311Z,92.14
2022-11-20T02:00:04.278Z,92.55
2022-11-20T02:02:31.931Z,92.59
2022-11-20T02:05:05.723Z,92.21
2022-11-20T02:07:33.167Z,92.11
2022-11-20T02:10:00.251Z,91.96
2022-11-20T02:12:46.227Z,92.17
2022-11-20T02:15:13.321Z,92.34
2022-11-20T02:17:40.684Z,92.35
2022-11-20T02:20:08.375Z,92.43
2022-11-20T02:22:48.232Z,92.67
2022-11-20T02:25:16.047Z,93.00
2022-11-20T02:27:43.700Z,92.95
2022-11-20T02:30:12.180Z,93.49
2022-11-20T02:32:41.024Z,93.64
2022-11-20T02:35:21.322Z,94.11
2022-11-20T02:37:51.427Z,94.25
2022-11-20T02:40:18.481Z,94.46
2022-11-20T02:42:45.984Z,94.40
2022-11-20T02:45:13.034Z,94.64
2022-11-20T02:47:40.635Z,94.69
2022-11-20T02:50:07.773Z,94.68
2022-11-20T02:52:35.092Z,94.54
2022-11-20T02:55:02.218Z,94.46
2022-11-20T02:57:29.506Z,94.51
2022-11-20T02:59:56.949Z,94.51
2022-11-20T03:02:24.520Z,95.16
2022-11-20T03:04:51.492Z,95.06
2022-11-20T03:07:18.915Z,94.81
2022-11-20T03:09:45.895Z,95.04
2022-11-20T03:12:13.206Z,94.76
2022-11-20T03:14:40.185Z,94.85
2022-11-20T03:17:07.530Z,95.28
2022-11-20T03:19:35.379Z,95.16
2022-11-20T03:22:02.691Z,95.17
2022-11-20T03:24:30.688Z,95.01
2022-11-20T03:26:58.031Z,95.42
2022-11-20T03:29:25.106Z,95.41
2022-11-20T03:31:52.349Z,95.67
2022-11-20T03:34:19.339Z,95.70
2022-11-20T03:36:46.655Z,95.44
2022-11-20T03:39:13.733Z,95.58
2022-11-20T03:41:42.458Z,95.36
2022-11-20T03:44:11.394Z,95.33
2022-11-20T03:46:39.091Z,95.51
2022-11-20T03:49:06.124Z,95.82
2022-11-20T03:51:35.432Z,96.07
2022-11-20T03:54:05.634Z,95.85
2022-11-20T03:56:35.984Z,95.52
2022-11-20T03:59:03.915Z,95.63
2022-11-20T04:01:34.489Z,95.20
2022-11-20T04:04:01.657Z,95.18
2022-11-20T04:06:31.940Z,95.38
2022-11-20T04:08:59.873Z,95.27
2022-11-20T04:11:29.760Z,95.49
2022-11-20T04:13:58.042Z,95.43
2022-11-20T04:16:27.348Z,95.21
2022-11-20T04:18:59.044Z,95.52
2022-11-20T04:21:27.555Z,95.77
2022-11-20T04:23:55.499Z,95.91
2022-11-20T04:26:24.814Z,96.04
2022-11-20T04:28:51.774Z,96.10
2022-11-20T04:31:22.194Z,95.83
2022-11-20T04:33:49.276Z,95.34
2022-11-20T04:36:22.079Z,95.48
2022-11-20T04:38:57.496Z,96.10
2022-11-20T04:41:28.045Z,96.10
2022-11-20T04:44:00.745Z,96.07
2022-11-20T04:46:29.251Z,96.13
2022-11-20T04:48:56.762Z,96.29
2022-11-20T04:51:24.874Z,96.18
2022-11-20T04:53:52.097Z,96.25
2022-11-20T04:56:20.146Z,96.20
2022-11-20T04:58:47.342Z,96.00
2022-11-20T05:01:17.203Z,96.08
2022-11-20T05:03:45.148Z,96.22
2022-11-20T05:06:15.148Z,96.26
2022-11-20T05:08:42.690Z,95.86
2022-11-20T05:11:13.152Z,95.63
2022-11-20T05:13:40.595Z,95.87
2022-11-20T05:16:11.132Z,95.38
2022-11-20T05:18:39.119Z,95.44
2022-11-20T05:21:07.796Z,95.99
2022-11-20T05:23:37.653Z,95.99
2022-11-20T05:26:07.665Z,95.36
2022-11-20T05:28:35.897Z,95.75
2022-11-20T05:31:12.176Z,95.99
2022-11-20T05:33:42.454Z,95.79
2022-11-20T05:36:11.303Z,95.71
2022-11-20T05:38:41.090Z,95.49
2022-11-20T05:41:11.871Z,95.56
2022-11-20T05:43:42.127Z,95.83
2022-11-20T05:46:11.463Z,95.95
2022-11-20T05:48:40.633Z,95.95
2022-11-20T05:51:11.999Z,96.27
2022-11-20T05:53:42.445Z,96.11
2022-11-20T05:56:18.729Z,96.14
2022-11-20T05:58:47.043Z,96.01
2022-11-20T06:01:19.679Z,95.88
2022-11-20T06:03:48.651Z,96.06
2022-11-20T06:06:27.398Z,96.04
2022-11-20T06:08:55.440Z,95.47
2022-11-20T06:11:23.918Z,96.08
2022-11-20T06:13:54.050Z,95.76
2022-11-20T06:16:24.247Z,96.42
2022-11-20T06:18:51.541Z,96.06
2022-11-20T06:21:21.001Z,96.44
2022-11-20T06:23:50.645Z,96.08
2022-11-20T06:26:23.231Z,96.21
2022-11-20T06:28:50.983Z,96.04
2022-11-20T06:31:21.452Z,96.13
2022-11-20T06:33:49.320Z,95.82
2022-11-20T06:36:18.243Z,96.17
2022-11-20T06:38:47.163Z,96.13
2022-11-20T06:41:18.143Z,96.12
2022-11-20T06:43:49.082Z,95.94
2022-11-20T06:46:20.792Z,95.86
2022-11-20T06:48:51.665Z,96.28
2022-11-20T06:51:20.310Z,95.80
2022-11-20T06:53:49.234Z,96.48
2022-11-20T06:56:16.654Z,96.05
2022-11-20T06:58:45.969Z,96.48
2022-11-20T07:01:16.505Z,96.56
2022-11-20T07:03:44.207Z,96.80
2022-11-20T07:06:11.969Z,96.93
2022-11-20T07:08:40.823Z,96.91
2022-11-20T07:11:13.059Z,96.71
2022-11-20T07:13:40.039Z,96.97
2022-11-20T07:16:09.303Z,96.75
2022-11-20T07:18:37.336Z,97.36
2022-11-20T07:21:08.500Z,97.13
2022-11-20T07:23:39.209Z,97.41
2022-11-20T07:26:09.081Z,97.20
2022-11-20T07:28:37.495Z,96.69
2022-11-20T07:31:07.931Z,96.29
2022-11-20T07:33:35.037Z,95.48
2022-11-20T07:36:02.577Z,95.13
2022-11-20T07:38:30.177Z,94.45
2022-11-20T07:41:02.704Z,94.34
2022-11-20T07:43:34.846Z,94.27
2022-11-20T07:46:06.457Z,93.58
2022-11-20T07:48:33.501Z,93.85
2022-11-20T07:51:00.990Z,94.08
2022-11-20T07:53:28.027Z,93.70
2022-11-20T07:56:02.836Z,93.39
2022-11-20T07:58:31.219Z,93.41
2022-11-20T08:00:58.583Z,92.54
2022-11-20T08:03:27.311Z,93.24
2022-11-20T08:05:54.596Z,93.75
2022-11-20T08:08:22.672Z,93.25
2022-11-20T08:10:50.093Z,93.37
2022-11-20T08:13:35.934Z,93.12
2022-11-20T08:16:03.850Z,93.12
2022-11-20T08:18:32.726Z,92.27
2022-11-20T08:21:05.961Z,92.46
2022-11-20T08:23:34.793Z,92.07
2022-11-20T08:26:05.568Z,91.72
2022-11-20T08:28:32.989Z,91.81
2022-11-20T08:31:04.149Z,91.84
2022-11-20T08:33:34.786Z,91.81
2022-11-20T08:36:10.667Z,92.54
2022-11-20T08:38:53.639Z,92.72
2022-11-20T08:41:24.624Z,92.75
2022-11-20T08:43:58.102Z,93.13
2022-11-20T08:46:26.987Z,93.25
2022-11-20T08:48:54.480Z,93.50
2022-11-20T08:51:21.873Z,93.50
2022-11-20T08:53:52.051Z,93.54
2022-11-20T08:56:20.390Z,93.80
2022-11-20T08:59:16.539Z,93.28
2022-11-20T09:01:38.375Z,93.00
2022-11-20T09:04:08.441Z,93.05
2022-11-20T09:06:35.938Z,93.05
2022-11-20T09:09:07.402Z,93.49
2022-11-20T09:11:37.036Z,93.63
2022-11-20T09:14:05.688Z,94.15
2022-11-20T09:16:33.895Z,93.57
2022-11-20T09:19:28.633Z,93.75
2022-11-20T09:25:05.383Z,94.25
2022-11-20T09:27:41.448Z,94.16
2022-11-20T09:30:09.265Z,94.26
2022-11-20T09:32:40.531Z,94.29
2022-11-20T09:35:08.984Z,93.96
2022-11-20T09:37:56.233Z,94.04
2022-11-20T09:40:24.949Z,94.59
2022-11-20T09:43:11.311Z,93.89
2022-11-20T09:46:11.873Z,93.77
2022-11-20T09:49:15.669Z,94.00
2022-11-20T09:52:23.113Z,93.49
2022-11-20T09:55:13.439Z,93.07
2022-11-20T09:58:01.153Z,93.13
2022-11-20T10:00:37.021Z,93.73
2022-11-20T10:03:20.482Z,93.55
2022-11-20T10:05:56.834Z,93.09
2022-11-20T10:08:48.301Z,93.47
2022-11-20T10:11:47.709Z,92.79
2022-11-20T10:14:42.521Z,93.15
2022-11-20T10:17:57.671Z,93.43
2022-11-20T10:20:50.124Z,93.74
2022-11-20T10:23:29.106Z,94.10
2022-11-20T10:26:04.432Z,94.46
2022-11-20T10:28:54.073Z,94.58
2022-11-20T10:31:34.318Z,95.22
2022-11-20T10:34:19.406Z,95.40
2022-11-20T10:37:00.759Z,95.72
2022-11-20T10:39:42.405Z,96.21
2022-11-20T10:42:31.152Z,96.86
2022-11-20T10:45:30.543Z,97.10
2022-11-20T10:48:08.605Z,97.40
2022-11-20T10:50:39.616Z,97.59
2022-11-20T10:53:34.265Z,97.61
2022-11-20T10:56:22.599Z,97.36
2022-11-20T10:59:31.387Z,97.87
2022-11-20T11:05:10.325Z,97.43
2022-11-20T11:07:59.225Z,97.75
2022-11-20T11:10:52.287Z,97.83
2022-11-20T11:13:28.106Z,98.05
2022-11-20T11:15:58.836Z,98.30
2022-11-20T11:18:28.964Z,98.31
2022-11-20T11:21:03.439Z,98.60
2022-11-20T11:23:46.792Z,98.34
2022-11-20T11:26:29.046Z,97.80
2022-11-20T11:29:06.103Z,97.70
2022-11-20T11:31:36.118Z,97.64
2022-11-20T11:34:29.785Z,97.79
2022-11-20T11:37:01.265Z,98.09
2022-11-20T11:39:30.667Z,98.21
2022-11-20T11:42:00.585Z,98.32
2022-11-20T11:44:54.297Z,97.85
2022-11-20T11:47:33.511Z,97.85
2022-11-20T11:50:20.720Z,97.90
2022-11-20T11:52:52.754Z,97.84
2022-11-20T11:55:29.093Z,97.60
2022-11-20T11:58:03.525Z,97.53
2022-11-20T12:00:30.697Z,97.71
2022-11-20T12:03:20.471Z,97.77
2022-11-20T12:05:54.017Z,97.58
2022-11-20T12:08:27.754Z,97.52
2022-11-20T12:11:17.385Z,96.89
2022-11-20T12:14:02.862Z,97.21
2022-11-20T12:16:36.474Z,96.99
2022-11-20T12:19:09.825Z,96.95
2022-11-20T12:21:59.990Z,97.24
2022-11-20T12:24:38.466Z,97.12
2022-11-20T12:27:24.134Z,96.93
2022-11-20T12:30:13.518Z,96.60
2022-11-20T12:33:10.831Z,96.40
2022-11-20T12:35:56.879Z,96.10
2022-11-20T12:38:36.386Z,96.71
2022-11-20T12:42:15.228Z,96.45
2022-11-20T12:45:13.077Z,96.32
2022-11-20T12:48:01.062Z,96.37
2022-11-20T12:51:13.936Z,96.13
2022-11-20T12:53:46.033Z,96.22
2022-11-20T12:56:32.595Z,95.91
2022-11-20T12:59:09.563Z,96.24
2022-11-20T13:01:59.849Z,96.33
2022-11-20T13:04:37.550Z,96.41
2022-11-20T13:07:16.452Z,96.45
2022-11-20T13:09:51.780Z,96.60
2022-11-20T13:12:24.896Z,96.90
2022-11-20T13:15:14.148Z,96.75
2022-11-20T13:17:44.212Z,97.20
2022-11-20T13:20:18.237Z,96.61
2022-11-20T13:22:49.131Z,96.90
2022-11-20T13:25:43.446Z,96.94
2022-11-20T13:28:31.543Z,96.74
2022-11-20T13:31:00.397Z,96.64
2022-11-20T13:33:37.814Z,96.66
2022-11-20T13:36:26.878Z,96.78
2022-11-20T13:38:58.838Z,97.25
2022-11-20T13:41:49.625Z,97.05
2022-11-20T13:44:36.694Z,96.91
2022-11-20T13:47:04.596Z,97.12
2022-11-20T13:49:48.450Z,97.07
2022-11-20T13:52:50.311Z,96.76
2022-11-20T13:55:47.859Z,96.75
2022-11-20T13:58:42.011Z,96.73
2022-11-20T14:01:17.568Z,97.05
2022-11-20T14:04:06.744Z,96.94
2022-11-20T14:06:44.843Z,97.02
2022-11-20T14:09:28.595Z,96.45
2022-11-20T14:11:56.191Z,96.75
2022-11-20T14:14:28.570Z,96.88
2022-11-20T14:17:21.450Z,96.89
2022-11-20T14:19:53.309Z,96.86
2022-11-20T14:22:23.774Z,96.77
2022-11-20T14:25:05.442Z,97.02
2022-11-20T14:27:38.504Z,97.28
2022-11-20T14:30:07.217Z,97.01
2022-11-20T14:32:36.334Z,97.53
2022-11-20T14:35:11.024Z,97.74
2022-11-20T14:37:40.797Z,97.58
2022-11-20T14:40:32.744Z,97.74
2022-11-20T14:43:00.745Z,97.77
2022-11-20T14:45:29.316Z,97.69
2022-11-20T14:47:58.781Z,97.84
2022-11-20T14:50:29.523Z,97.97
2022-11-20T14:53:06.410Z,97.70
2022-11-20T14:55:34.757Z,98.01
2022-11-20T14:58:21.826Z,98.00
2022-11-20T15:01:01.192Z,97.89
2022-11-20T15:03:37.525Z,97.39
2022-11-20T15:06:11.995Z,97.39
2022-11-20T15:08:39.414Z,97.11
2022-11-20T15:11:21.361Z,97.50
2022-11-20T15:13:48.297Z,98.00
2022-11-20T15:16:21.333Z,97.92
2022-11-20T15:18:49.309Z,98.30
2022-11-20T15:21:26.712Z,97.87
2022-11-20T15:23:56.982Z,98.22
2022-11-20T15:26:30.429Z,98.43
2022-11-20T15:28:59.815Z,97.93
2022-11-20T15:31:27.486Z,97.58
2022-11-20T15:33:54.959Z,97.70
2022-11-20T15:36:22.566Z,97.18
2022-11-20T15:38:49.838Z,97.37
2022-11-20T15:44:01.244Z,98.11
2022-11-20T15:46:39.198Z,97.84
2022-11-20T15:49:07.246Z,97.53
2022-11-20T15:51:42.057Z,97.57
2022-11-20T15:54:12.641Z,97.67
2022-11-20T15:56:42.060Z,97.68
2022-11-20T15:59:09.205Z,97.89
2022-11-20T16:01:51.035Z,98.35
2022-11-20T16:04:52.728Z,98.02
2022-11-20T16:07:19.860Z,98.33
2022-11-20T16:09:48.552Z,98.41
2022-11-20T16:12:35.495Z,97.82
2022-11-20T16:15:21.559Z,97.04
2022-11-20T16:17:52.240Z,97.33
2022-11-20T16:20:31.085Z,96.87
2022-11-20T16:23:31.091Z,97.19
2022-11-20T16:26:28.660Z,97.09
2022-11-20T16:29:03.788Z,97.03
2022-11-20T16:31:31.252Z,96.56
2022-11-20T16:34:16.506Z,96.92
2022-11-20T16:42:37.909Z,96.18
2022-11-20T16:45:07.036Z,95.66
2022-11-20T16:47:38.455Z,95.96
2022-11-20T16:50:15.226Z,95.86
2022-11-20T16:53:00.205Z,96.20
2022-11-20T16:55:37.787Z,95.97
2022-11-20T16:58:26.304Z,95.89
2022-11-20T17:04:31.966Z,96.54
2022-11-20T17:07:07.875Z,96.62
2022-11-20T17:09:39.546Z,96.59
2022-11-20T17:12:08.474Z,96.73
2022-11-20T17:14:36.765Z,96.49
2022-11-20T17:17:04.029Z,96.21
2022-11-20T17:19:32.301Z,96.32
2022-11-20T17:21:59.361Z,96.69
2022-11-20T17:24:32.137Z,97.07
2022-11-20T17:26:59.484Z,96.98
2022-11-20T17:29:27.193Z,97.27
2022-11-20T17:32:00.401Z,97.34
2022-11-20T17:34:28.221Z,96.82
2022-11-20T17:36:55.928Z,96.86
2022-11-20T17:39:23.455Z,97.22
2022-11-20T17:42:10.437Z,96.91
2022-11-20T17:44:42.853Z,97.56
2022-11-20T17:47:12.498Z,97.63
2022-11-20T17:49:40.839Z,97.12
2022-11-20T17:52:08.097Z,96.73
2022-11-20T17:54:49.930Z,96.17
2022-11-20T17:57:35.786Z,96.43
2022-11-20T18:00:14.470Z,96.37
2022-11-20T18:02:43.229Z,95.97
2022-11-20T18:05:13.109Z,95.61
2022-11-20T18:07:41.915Z,95.18
2022-11-20T18:10:13.868Z,95.47
2022-11-20T18:12:44.147Z,95.23
2022-11-20T18:15:11.720Z,95.78
2022-11-20T18:17:43.516Z,95.49
2022-11-20T18:20:35.122Z,95.95
2022-11-20T18:23:05.898Z,95.85
2022-11-20T18:25:37.819Z,96.18
2022-11-20T18:28:07.634Z,95.85
2022-11-20T18:30:36.657Z,96.29
2022-11-20T18:33:05.366Z,96.64
2022-11-20T18:35:53.386Z,96.59
2022-11-20T18:38:24.038Z,96.39
2022-11-20T18:41:35.294Z,96.92
2022-11-20T18:53:06.166Z,97.80
2022-11-20T18:59:52.540Z,97.28
2022-11-20T19:06:19.595Z,96.68
2022-11-20T19:13:43.302Z,96.61
2022-11-20T19:24:03.329Z,96.83
2022-11-20T19:30:48.181Z,96.66
2022-11-20T19:33:19.191Z,96.90
2022-11-20T19:35:46.678Z,97.30
2022-11-20T19:38:14.885Z,97.29
2022-11-20T19:40:46.481Z,96.89
2022-11-20T19:43:21.555Z,96.92
2022-11-20T19:48:51.680Z,96.50
2022-11-20T19:52:01.222Z,96.54
2022-11-20T19:54:31.792Z,96.17
2022-11-20T19:57:05.325Z,96.36
2022-11-20T19:59:38.557Z,96.66
2022-11-20T20:02:06.409Z,96.63
2022-11-20T20:04:36.951Z,97.18
2022-11-20T20:07:07.242Z,97.44
2022-11-20T20:09:42.638Z,97.42
2022-11-20T20:12:34.705Z,97.29
2022-11-20T20:15:09.096Z,97.23
2022-11-20T20:17:37.726Z,97.09
2022-11-20T20:20:08.589Z,96.93
2022-11-20T20:22:36.774Z,96.93
2022-11-20T20:28:26.862Z,97.57
2022-11-20T20:30:57.384Z,97.51
2022-11-20T20:33:24.889Z,98.06
2022-11-20T20:35:52.374Z,98.09
2022-11-20T20:38:25.117Z,97.76
2022-11-20T20:40:53.432Z,97.81
2022-11-20T20:43:20.601Z,97.91
2022-11-20T20:45:52.162Z,97.46
2022-11-20T20:48:24.439Z,97.17
2022-11-20T20:51:00.056Z,97.18
2022-11-20T20:53:31.371Z,97.02
2022-11-20T20:56:03.678Z,96.95
2022-11-20T20:58:31.063Z,96.80
2022-11-20T21:01:09.484Z,96.80
2022-11-20T21:03:40.033Z,96.99
2022-11-20T21:06:09.941Z,97.09
2022-11-20T21:08:40.341Z,97.45
2022-11-20T21:11:14.858Z,97.68
2022-11-20T21:13:44.816Z,97.53
2022-11-20T21:16:18.069Z,97.81
2022-11-20T21:18:45.421Z,97.52
2022-11-20T21:21:39.650Z,97.48
2022-11-20T21:24:07.137Z,97.05
2022-11-20T21:26:34.418Z,96.98
2022-11-20T21:29:06.655Z,97.28
2022-11-20T21:31:39.605Z,97.44
2022-11-20T21:34:08.436Z,97.18
2022-11-20T21:36:36.302Z,96.88
2022-11-20T21:39:06.100Z,96.58
2022-11-20T21:41:33.994Z,96.36
2022-11-20T21:46:53.812Z,96.44
2022-11-20T21:49:20.970Z,95.98
2022-11-20T21:51:49.590Z,96.29
2022-11-20T21:54:17.711Z,96.12
2022-11-20T21:56:45.252Z,96.32
2022-11-20T21:59:14.033Z,96.23
2022-11-20T22:01:42.219Z,96.19
2022-11-20T22:04:18.682Z,96.33
2022-11-20T22:06:46.183Z,96.42
2022-11-20T22:09:16.907Z,96.48
2022-11-20T22:11:44.887Z,96.28
2022-11-20T22:14:21.786Z,96.44
2022-11-20T22:16:51.246Z,96.61
2022-11-20T22:19:20.759Z,96.69
2022-11-20T22:21:51.789Z,96.58
2022-11-20T22:24:22.742Z,96.72
2022-11-20T22:26:53.225Z,97.24
2022-11-20T22:29:21.496Z,96.80
2022-11-20T22:31:51.328Z,96.71
2022-11-20T22:34:18.420Z,97.18
2022-11-20T22:36:45.790Z,96.83
2022-11-20T22:39:13.728Z,96.68
2022-11-20T22:41:41.038Z,96.36
2022-11-20T22:44:08.625Z,96.16
2022-11-20T22:46:38.555Z,96.14
2022-11-20T22:49:08.882Z,96.31
2022-11-20T22:51:41.051Z,96.20
2022-11-20T22:54:10.418Z,96.63
2022-11-20T22:56:38.821Z,96.72
2022-11-20T22:59:05.988Z,97.05
2022-11-20T23:01:39.421Z,96.88
2022-11-20T23:04:10.353Z,96.61
2022-11-20T23:06:38.411Z,96.57
2022-11-20T23:09:06.970Z,96.82
2022-11-20T23:11:40.879Z,96.76
2022-11-20T23:14:14.572Z,96.98
2022-11-20T23:16:42.541Z,97.04
2022-11-20T23:19:12.473Z,97.45
2022-11-20T23:21:41.468Z,97.48
2022-11-20T23:24:09.584Z,97.16
2022-11-20T23:26:41.834Z,97.29
2022-11-20T23:29:09.046Z,97.54
2022-11-20T23:31:39.741Z,97.78
2022-11-20T23:34:06.773Z,97.85
2022-11-20T23:36:34.166Z,97.87
2022-11-20T23:39:04.068Z,98.07
2022-11-20T23:41:32.667Z,98.25
2022-11-20T23:44:01.543Z,97.90
2022-11-20T23:46:28.851Z,97.84
2022-11-20T23:48:55.814Z,98.08
2022-11-20T23:51:23.240Z,97.74
2022-11-20T23:53:53.024Z,97.87
2022-11-20T23:56:20.342Z,98.32
2022-11-20T23:58:47.223Z,98.17
